sensor_id;sensor_type;location;lat;lon;timestamp;temperature;humidity
23713;DHT22;12035;49.978;8.298;2023-05-07T00:00:39;22.30;48.90
23713;DHT22;12035;49.978;8.298;2023-05-07T00:05:37;22.40;48.90
23713;DHT22;12035;49.978;8.298;2023-05-07T00:10:36;22.40;48.90
23713;DHT22;12035;49.978;8.298;2023-05-07T00:15:33;22.40;49.00
23713;DHT22;12035;49.978;8.298;2023-05-07T00:20:30;22.40;48.80
23713;DHT22;12035;49.978;8.298;2023-05-07T00:25:27;22.40;48.90
23713;DHT22;12035;49.978;8.298;2023-05-07T00:30:26;22.40;48.90
23713;DHT22;12035;49.978;8.298;2023-05-07T00:35:23;22.40;49.00
23713;DHT22;12035;49.978;8.298;2023-05-07T00:40:20;22.40;49.00
23713;DHT22;12035;49.978;8.298;2023-05-07T00:45:18;22.30;49.00
23713;DHT22;12035;49.978;8.298;2023-05-07T00:50:16;22.20;49.20
23713;DHT22;12035;49.978;8.298;2023-05-07T00:55:14;22.10;49.30
23713;DHT22;12035;49.978;8.298;2023-05-07T01:00:12;22.00;49.40
23713;DHT22;12035;49.978;8.298;2023-05-07T01:05:11;22.00;49.40
23713;DHT22;12035;49.978;8.298;2023-05-07T01:10:11;22.00;49.60
23713;DHT22;12035;49.978;8.298;2023-05-07T01:15:09;22.00;49.60
23713;DHT22;12035;49.978;8.298;2023-05-07T01:20:07;21.90;49.60
23713;DHT22;12035;49.978;8.298;2023-05-07T01:25:07;21.80;49.70
23713;DHT22;12035;49.978;8.298;2023-05-07T01:30:06;21.80;49.90
23713;DHT22;12035;49.978;8.298;2023-05-07T01:35:05;21.70;49.80
23713;DHT22;12035;49.978;8.298;2023-05-07T01:40:06;21.70;49.90
23713;DHT22;12035;49.978;8.298;2023-05-07T01:45:05;21.80;50.10
23713;DHT22;12035;49.978;8.298;2023-05-07T01:50:04;21.80;50.10
23713;DHT22;12035;49.978;8.298;2023-05-07T01:55:04;21.80;50.20
23713;DHT22;12035;49.978;8.298;2023-05-07T02:00:04;21.80;50.50
23713;DHT22;12035;49.978;8.298;2023-05-07T02:05:05;21.80;50.60
23713;DHT22;12035;49.978;8.298;2023-05-07T02:10:02;21.90;50.60
23713;DHT22;12035;49.978;8.298;2023-05-07T02:15:00;21.90;50.60
23713;DHT22;12035;49.978;8.298;2023-05-07T02:19:59;21.90;50.60
23713;DHT22;12035;49.978;8.298;2023-05-07T02:24:56;22.00;50.70
23713;DHT22;12035;49.978;8.298;2023-05-07T02:29:53;22.00;50.70
23713;DHT22;12035;49.978;8.298;2023-05-07T02:34:50;22.00;50.50
23713;DHT22;12035;49.978;8.298;2023-05-07T02:39:49;22.00;50.50
23713;DHT22;12035;49.978;8.298;2023-05-07T02:44:46;22.00;50.30
23713;DHT22;12035;49.978;8.298;2023-05-07T02:49:42;21.90;50.20
23713;DHT22;12035;49.978;8.298;2023-05-07T02:54:39;21.70;50.20
23713;DHT22;12035;49.978;8.298;2023-05-07T02:59:38;21.60;50.40
23713;DHT22;12035;49.978;8.298;2023-05-07T03:04:35;21.50;50.60
23713;DHT22;12035;49.978;8.298;2023-05-07T03:09:32;21.40;50.70
23713;DHT22;12035;49.978;8.298;2023-05-07T03:14:29;21.30;50.80
23713;DHT22;12035;49.978;8.298;2023-05-07T03:19:27;21.20;51.00
23713;DHT22;12035;49.978;8.298;2023-05-07T03:24:26;21.10;51.20
23713;DHT22;12035;49.978;8.298;2023-05-07T03:29:23;21.10;51.40
23713;DHT22;12035;49.978;8.298;2023-05-07T03:34:20;21.00;51.50
23713;DHT22;12035;49.978;8.298;2023-05-07T03:39:18;20.90;51.70
23713;DHT22;12035;49.978;8.298;2023-05-07T03:44:15;20.80;51.90
23713;DHT22;12035;49.978;8.298;2023-05-07T03:49:12;20.70;52.40
23713;DHT22;12035;49.978;8.298;2023-05-07T03:54:09;20.60;52.40
23713;DHT22;12035;49.978;8.298;2023-05-07T03:59:08;20.50;52.50
23713;DHT22;12035;49.978;8.298;2023-05-07T04:04:05;20.40;52.80
23713;DHT22;12035;49.978;8.298;2023-05-07T04:09:02;20.40;52.70
23713;DHT22;12035;49.978;8.298;2023-05-07T04:13:59;20.40;52.90
23713;DHT22;12035;49.978;8.298;2023-05-07T04:18:57;20.30;53.10
23713;DHT22;12035;49.978;8.298;2023-05-07T04:23:54;20.30;53.40
23713;DHT22;12035;49.978;8.298;2023-05-07T04:28:51;20.20;53.20
23713;DHT22;12035;49.978;8.298;2023-05-07T04:33:48;20.10;53.60
23713;DHT22;12035;49.978;8.298;2023-05-07T04:38:47;20.10;53.80
23713;DHT22;12035;49.978;8.298;2023-05-07T04:43:44;20.00;54.20
23713;DHT22;12035;49.978;8.298;2023-05-07T04:48:41;19.90;54.10
23713;DHT22;12035;49.978;8.298;2023-05-07T04:53:38;19.90;54.40
23713;DHT22;12035;49.978;8.298;2023-05-07T04:58:37;19.80;54.40
23713;DHT22;12035;49.978;8.298;2023-05-07T05:03:34;19.80;54.40
23713;DHT22;12035;49.978;8.298;2023-05-07T05:08:31;19.80;54.60
23713;DHT22;12035;49.978;8.298;2023-05-07T05:13:28;19.70;54.80
23713;DHT22;12035;49.978;8.298;2023-05-07T05:18:27;19.70;55.20
23713;DHT22;12035;49.978;8.298;2023-05-07T05:23:24;19.60;55.50
23713;DHT22;12035;49.978;8.298;2023-05-07T05:28:21;19.60;55.20
23713;DHT22;12035;49.978;8.298;2023-05-07T05:33:18;19.70;55.10
23713;DHT22;12035;49.978;8.298;2023-05-07T05:38:16;19.70;55.20
23713;DHT22;12035;49.978;8.298;2023-05-07T05:43:13;19.70;55.20
23713;DHT22;12035;49.978;8.298;2023-05-07T05:48:10;19.80;55.30
23713;DHT22;12035;49.978;8.298;2023-05-07T05:53:08;19.90;55.50
23713;DHT22;12035;49.978;8.298;2023-05-07T05:58:06;20.20;56.30
23713;DHT22;12035;49.978;8.298;2023-05-07T06:03:03;20.90;56.00
23713;DHT22;12035;49.978;8.298;2023-05-07T06:08:00;21.70;54.80
23713;DHT22;12035;49.978;8.298;2023-05-07T06:12:57;22.20;53.30
23713;DHT22;12035;49.978;8.298;2023-05-07T06:17:55;22.60;52.50
23713;DHT22;12035;49.978;8.298;2023-05-07T06:22:52;23.00;51.60
23713;DHT22;12035;49.978;8.298;2023-05-07T06:27:50;23.30;50.90
23713;DHT22;12035;49.978;8.298;2023-05-07T06:32:50;23.60;50.40
23713;DHT22;12035;49.978;8.298;2023-05-07T06:37:48;23.80;49.20
23713;DHT22;12035;49.978;8.298;2023-05-07T06:42:45;23.90;48.30
23713;DHT22;12035;49.978;8.298;2023-05-07T06:47:42;23.80;47.90
23713;DHT22;12035;49.978;8.298;2023-05-07T06:52:39;23.50;48.00
23713;DHT22;12035;49.978;8.298;2023-05-07T06:57:38;23.10;48.60
23713;DHT22;12035;49.978;8.298;2023-05-07T07:02:36;22.80;49.00
23713;DHT22;12035;49.978;8.298;2023-05-07T07:07:33;22.50;49.40
23713;DHT22;12035;49.978;8.298;2023-05-07T07:12:30;22.10;50.00
23713;DHT22;12035;49.978;8.298;2023-05-07T07:17:28;21.80;50.60
23713;DHT22;12035;49.978;8.298;2023-05-07T07:22:26;21.60;51.30
23713;DHT22;12035;49.978;8.298;2023-05-07T07:27:23;21.40;51.70
23713;DHT22;12035;49.978;8.298;2023-05-07T07:32:20;21.40;52.20
23713;DHT22;12035;49.978;8.298;2023-05-07T07:37:19;21.20;52.70
23713;DHT22;12035;49.978;8.298;2023-05-07T07:42:16;21.10;52.70
23713;DHT22;12035;49.978;8.298;2023-05-07T07:47:13;21.10;53.20
23713;DHT22;12035;49.978;8.298;2023-05-07T07:52:10;21.00;53.30
23713;DHT22;12035;49.978;8.298;2023-05-07T07:57:09;21.00;53.80
23713;DHT22;12035;49.978;8.298;2023-05-07T08:02:06;21.00;53.80
23713;DHT22;12035;49.978;8.298;2023-05-07T08:07:03;21.00;54.00
23713;DHT22;12035;49.978;8.298;2023-05-07T08:12:00;21.10;54.10
23713;DHT22;12035;49.978;8.298;2023-05-07T08:16:59;21.10;54.00
23713;DHT22;12035;49.978;8.298;2023-05-07T08:21:56;21.20;54.00
23713;DHT22;12035;49.978;8.298;2023-05-07T08:26:53;21.30;53.90
23713;DHT22;12035;49.978;8.298;2023-05-07T08:31:50;21.40;53.80
23713;DHT22;12035;49.978;8.298;2023-05-07T08:36:48;21.40;54.00
23713;DHT22;12035;49.978;8.298;2023-05-07T08:41:45;21.50;53.90
23713;DHT22;12035;49.978;8.298;2023-05-07T08:46:45;21.60;53.80
23713;DHT22;12035;49.978;8.298;2023-05-07T08:51:43;21.70;53.60
23713;DHT22;12035;49.978;8.298;2023-05-07T08:56:42;21.90;53.30
23713;DHT22;12035;49.978;8.298;2023-05-07T09:01:39;22.10;53.00
23713;DHT22;12035;49.978;8.298;2023-05-07T09:06:36;22.30;52.70
23713;DHT22;12035;49.978;8.298;2023-05-07T09:11:37;22.60;52.10
23713;DHT22;12035;49.978;8.298;2023-05-07T09:16:35;22.80;51.50
23713;DHT22;12035;49.978;8.298;2023-05-07T09:21:32;22.90;51.00
23713;DHT22;12035;49.978;8.298;2023-05-07T09:26:29;23.20;51.10
23713;DHT22;12035;49.978;8.298;2023-05-07T09:31:28;23.40;50.50
23713;DHT22;12035;49.978;8.298;2023-05-07T09:36:27;23.70;50.90
23713;DHT22;12035;49.978;8.298;2023-05-07T09:41:24;23.90;49.20
23713;DHT22;12035;49.978;8.298;2023-05-07T09:46:27;24.00;49.10
23713;DHT22;12035;49.978;8.298;2023-05-07T09:51:32;24.20;48.70
23713;DHT22;12035;49.978;8.298;2023-05-07T09:56:31;24.30;48.60
23713;DHT22;12035;49.978;8.298;2023-05-07T10:01:31;24.30;48.30
23713;DHT22;12035;49.978;8.298;2023-05-07T10:06:30;24.40;48.10
23713;DHT22;12035;49.978;8.298;2023-05-07T10:11:30;24.50;47.90
23713;DHT22;12035;49.978;8.298;2023-05-07T10:16:31;24.50;47.50
23713;DHT22;12035;49.978;8.298;2023-05-07T10:21:36;24.60;47.40
23713;DHT22;12035;49.978;8.298;2023-05-07T10:26:35;24.80;47.20
23713;DHT22;12035;49.978;8.298;2023-05-07T10:31:49;25.00;46.90
23713;DHT22;12035;49.978;8.298;2023-05-07T10:36:52;25.30;46.20
23713;DHT22;12035;49.978;8.298;2023-05-07T10:41:50;25.50;45.80
23713;DHT22;12035;49.978;8.298;2023-05-07T10:47:06;25.60;45.50
23713;DHT22;12035;49.978;8.298;2023-05-07T10:52:13;25.70;45.30
23713;DHT22;12035;49.978;8.298;2023-05-07T10:57:33;25.90;45.40
23713;DHT22;12035;49.978;8.298;2023-05-07T11:03:04;26.10;44.80
23713;DHT22;12035;49.978;8.298;2023-05-07T11:08:04;26.20;44.00
23713;DHT22;12035;49.978;8.298;2023-05-07T11:13:02;26.30;43.90
23713;DHT22;12035;49.978;8.298;2023-05-07T11:18:00;26.30;43.50
23713;DHT22;12035;49.978;8.298;2023-05-07T11:22:59;26.40;43.80
23713;DHT22;12035;49.978;8.298;2023-05-07T11:28:04;26.40;43.60
23713;DHT22;12035;49.978;8.298;2023-05-07T11:33:02;26.50;43.70
23713;DHT22;12035;49.978;8.298;2023-05-07T11:38:00;26.60;43.10
23713;DHT22;12035;49.978;8.298;2023-05-07T11:42:59;26.60;43.00
23713;DHT22;12035;49.978;8.298;2023-05-07T11:48:08;26.70;43.00
23713;DHT22;12035;49.978;8.298;2023-05-07T11:53:07;26.70;42.20
23713;DHT22;12035;49.978;8.298;2023-05-07T11:58:06;26.70;41.80
23713;DHT22;12035;49.978;8.298;2023-05-07T12:03:04;26.70;41.50
23713;DHT22;12035;49.978;8.298;2023-05-07T12:08:01;26.70;42.00
23713;DHT22;12035;49.978;8.298;2023-05-07T12:12:59;26.70;41.50
23713;DHT22;12035;49.978;8.298;2023-05-07T12:17:57;26.70;41.60
23713;DHT22;12035;49.978;8.298;2023-05-07T12:22:54;26.80;41.60
23713;DHT22;12035;49.978;8.298;2023-05-07T12:27:52;26.80;41.10
23713;DHT22;12035;49.978;8.298;2023-05-07T12:32:52;26.90;41.30
23713;DHT22;12035;49.978;8.298;2023-05-07T12:37:56;26.90;40.90
23713;DHT22;12035;49.978;8.298;2023-05-07T12:42:55;26.90;40.00
23713;DHT22;12035;49.978;8.298;2023-05-07T12:47:52;27.10;40.30
23713;DHT22;12035;49.978;8.298;2023-05-07T12:52:49;27.20;39.80
23713;DHT22;12035;49.978;8.298;2023-05-07T12:57:48;27.20;39.40
23713;DHT22;12035;49.978;8.298;2023-05-07T13:02:47;27.30;39.50
23713;DHT22;12035;49.978;8.298;2023-05-07T13:07:52;27.40;39.30
23713;DHT22;12035;49.978;8.298;2023-05-07T13:12:51;27.40;39.00
23713;DHT22;12035;49.978;8.298;2023-05-07T13:17:48;27.40;38.70
23713;DHT22;12035;49.978;8.298;2023-05-07T13:22:45;27.40;39.00
23713;DHT22;12035;49.978;8.298;2023-05-07T13:27:43;27.40;38.80
23713;DHT22;12035;49.978;8.298;2023-05-07T13:32:42;27.50;38.70
23713;DHT22;12035;49.978;8.298;2023-05-07T13:37:39;27.50;38.30
23713;DHT22;12035;49.978;8.298;2023-05-07T13:42:36;27.50;37.90
23713;DHT22;12035;49.978;8.298;2023-05-07T13:47:33;27.50;37.70
23713;DHT22;12035;49.978;8.298;2023-05-07T13:52:33;27.60;37.20
23713;DHT22;12035;49.978;8.298;2023-05-07T13:57:31;27.60;37.50
23713;DHT22;12035;49.978;8.298;2023-05-07T14:02:28;27.60;37.10
23713;DHT22;12035;49.978;8.298;2023-05-07T14:07:25;27.50;36.20
23713;DHT22;12035;49.978;8.298;2023-05-07T14:12:25;27.50;36.20
23713;DHT22;12035;49.978;8.298;2023-05-07T14:17:23;27.60;36.10
23713;DHT22;12035;49.978;8.298;2023-05-07T14:22:23;27.50;35.40
23713;DHT22;12035;49.978;8.298;2023-05-07T14:27:20;27.50;35.90
23713;DHT22;12035;49.978;8.298;2023-05-07T14:32:19;27.50;36.00
23713;DHT22;12035;49.978;8.298;2023-05-07T14:37:16;27.50;36.20
23713;DHT22;12035;49.978;8.298;2023-05-07T14:42:15;27.60;36.30
23713;DHT22;12035;49.978;8.298;2023-05-07T14:47:12;27.60;36.60
23713;DHT22;12035;49.978;8.298;2023-05-07T14:52:12;27.60;36.70
23713;DHT22;12035;49.978;8.298;2023-05-07T14:57:11;27.60;36.80
23713;DHT22;12035;49.978;8.298;2023-05-07T15:02:11;27.60;37.70
23713;DHT22;12035;49.978;8.298;2023-05-07T15:07:09;27.50;38.10
23713;DHT22;12035;49.978;8.298;2023-05-07T15:12:08;27.50;38.80
23713;DHT22;12035;49.978;8.298;2023-05-07T15:17:07;27.40;39.50
23713;DHT22;12035;49.978;8.298;2023-05-07T15:22:05;27.20;39.30
23713;DHT22;12035;49.978;8.298;2023-05-07T15:27:18;27.10;39.60
23713;DHT22;12035;49.978;8.298;2023-05-07T15:32:20;27.00;39.60
23713;DHT22;12035;49.978;8.298;2023-05-07T15:37:20;26.90;39.70
23713;DHT22;12035;49.978;8.298;2023-05-07T15:42:21;26.80;40.10
23713;DHT22;12035;49.978;8.298;2023-05-07T15:47:28;26.80;40.30
23713;DHT22;12035;49.978;8.298;2023-05-07T15:52:33;26.70;40.40
23713;DHT22;12035;49.978;8.298;2023-05-07T15:57:34;26.60;40.50
23713;DHT22;12035;49.978;8.298;2023-05-07T16:02:32;26.60;40.70
23713;DHT22;12035;49.978;8.298;2023-05-07T16:07:31;26.50;40.90
23713;DHT22;12035;49.978;8.298;2023-05-07T16:12:30;26.50;41.00
23713;DHT22;12035;49.978;8.298;2023-05-07T16:17:35;26.40;41.00
23713;DHT22;12035;49.978;8.298;2023-05-07T16:22:33;26.40;41.10
23713;DHT22;12035;49.978;8.298;2023-05-07T16:27:42;26.30;43.50
23713;DHT22;12035;49.978;8.298;2023-05-07T16:32:40;25.90;45.50
23713;DHT22;12035;49.978;8.298;2023-05-07T16:37:39;25.40;48.00
23713;DHT22;12035;49.978;8.298;2023-05-07T16:42:36;24.90;49.60
23713;DHT22;12035;49.978;8.298;2023-05-07T16:47:35;24.30;50.70
23713;DHT22;12035;49.978;8.298;2023-05-07T16:52:32;23.80;52.20
23713;DHT22;12035;49.978;8.298;2023-05-07T16:57:29;23.30;53.30
23713;DHT22;12035;49.978;8.298;2023-05-07T17:02:27;22.90;54.30
23713;DHT22;12035;49.978;8.298;2023-05-07T17:07:27;22.50;55.10
23713;DHT22;12035;49.978;8.298;2023-05-07T17:12:25;22.20;55.90
23713;DHT22;12035;49.978;8.298;2023-05-07T17:17:23;22.00;56.00
23713;DHT22;12035;49.978;8.298;2023-05-07T17:22:20;21.90;56.60
23713;DHT22;12035;49.978;8.298;2023-05-07T17:27:19;21.70;56.90
23713;DHT22;12035;49.978;8.298;2023-05-07T17:32:16;21.60;57.20
23713;DHT22;12035;49.978;8.298;2023-05-07T17:37:16;21.50;57.20
23713;DHT22;12035;49.978;8.298;2023-05-07T17:42:14;21.50;57.20
23713;DHT22;12035;49.978;8.298;2023-05-07T17:47:14;21.50;57.10
23713;DHT22;12035;49.978;8.298;2023-05-07T17:52:11;21.60;57.20
23713;DHT22;12035;49.978;8.298;2023-05-07T17:57:08;21.60;57.30
23713;DHT22;12035;49.978;8.298;2023-05-07T18:02:05;21.70;57.50
23713;DHT22;12035;49.978;8.298;2023-05-07T18:07:04;21.90;57.50
23713;DHT22;12035;49.978;8.298;2023-05-07T18:12:01;22.00;57.60
23713;DHT22;12035;49.978;8.298;2023-05-07T18:16:58;22.20;57.30
23713;DHT22;12035;49.978;8.298;2023-05-07T18:21:55;22.40;57.40
23713;DHT22;12035;49.978;8.298;2023-05-07T18:26:54;22.50;57.50
23713;DHT22;12035;49.978;8.298;2023-05-07T18:31:51;22.60;57.70
23713;DHT22;12035;49.978;8.298;2023-05-07T18:36:48;22.70;57.50
23713;DHT22;12035;49.978;8.298;2023-05-07T18:41:45;22.80;57.40
23713;DHT22;12035;49.978;8.298;2023-05-07T18:46:44;22.80;57.50
23713;DHT22;12035;49.978;8.298;2023-05-07T18:51:43;22.80;57.80
23713;DHT22;12035;49.978;8.298;2023-05-07T18:56:40;22.90;58.40
23713;DHT22;12035;49.978;8.298;2023-05-07T19:01:37;22.90;58.10
23713;DHT22;12035;49.978;8.298;2023-05-07T19:06:36;22.90;58.00
23713;DHT22;12035;49.978;8.298;2023-05-07T19:11:33;23.00;58.20
23713;DHT22;12035;49.978;8.298;2023-05-07T19:16:30;22.90;58.20
23713;DHT22;12035;49.978;8.298;2023-05-07T19:21:28;22.90;58.30
23713;DHT22;12035;49.978;8.298;2023-05-07T19:26:27;22.90;58.60
23713;DHT22;12035;49.978;8.298;2023-05-07T19:31:26;22.90;58.90
23713;DHT22;12035;49.978;8.298;2023-05-07T19:36:23;22.90;59.00
23713;DHT22;12035;49.978;8.298;2023-05-07T19:41:23;22.90;59.00
23713;DHT22;12035;49.978;8.298;2023-05-07T19:46:23;22.80;59.10
23713;DHT22;12035;49.978;8.298;2023-05-07T19:51:21;22.80;59.30
23713;DHT22;12035;49.978;8.298;2023-05-07T19:56:18;22.80;59.30
23713;DHT22;12035;49.978;8.298;2023-05-07T20:01:16;22.70;59.20
23713;DHT22;12035;49.978;8.298;2023-05-07T20:06:15;22.80;59.40
23713;DHT22;12035;49.978;8.298;2023-05-07T20:11:12;22.70;59.60
23713;DHT22;12035;49.978;8.298;2023-05-07T20:16:10;22.70;59.40
23713;DHT22;12035;49.978;8.298;2023-05-07T20:21:10;22.70;59.50
23713;DHT22;12035;49.978;8.298;2023-05-07T20:26:10;22.70;59.60
23713;DHT22;12035;49.978;8.298;2023-05-07T20:31:07;22.70;59.50
23713;DHT22;12035;49.978;8.298;2023-05-07T20:36:05;22.60;59.30
23713;DHT22;12035;49.978;8.298;2023-05-07T20:41:10;22.60;59.60
23713;DHT22;12035;49.978;8.298;2023-05-07T20:46:09;22.60;59.50
23713;DHT22;12035;49.978;8.298;2023-05-07T20:51:07;22.60;59.60
23713;DHT22;12035;49.978;8.298;2023-05-07T20:56:09;22.60;59.60
23713;DHT22;12035;49.978;8.298;2023-05-07T21:01:07;22.50;59.70
23713;DHT22;12035;49.978;8.298;2023-05-07T21:06:05;22.60;59.60
23713;DHT22;12035;49.978;8.298;2023-05-07T21:11:03;22.50;59.50
23713;DHT22;12035;49.978;8.298;2023-05-07T21:16:02;22.40;59.70
23713;DHT22;12035;49.978;8.298;2023-05-07T21:20:59;22.30;59.90
23713;DHT22;12035;49.978;8.298;2023-05-07T21:25:56;22.20;60.20
23713;DHT22;12035;49.978;8.298;2023-05-07T21:30:54;22.10;60.50
23713;DHT22;12035;49.978;8.298;2023-05-07T21:35:54;21.90;61.50
23713;DHT22;12035;49.978;8.298;2023-05-07T21:40:52;21.70;61.90
23713;DHT22;12035;49.978;8.298;2023-05-07T21:45:49;21.60;62.20
23713;DHT22;12035;49.978;8.298;2023-05-07T21:50:47;21.50;62.70
23713;DHT22;12035;49.978;8.298;2023-05-07T21:56:01;21.50;63.60
23713;DHT22;12035;49.978;8.298;2023-05-07T22:01:00;21.40;64.90
23713;DHT22;12035;49.978;8.298;2023-05-07T22:06:01;21.30;64.70
23713;DHT22;12035;49.978;8.298;2023-05-07T22:10:58;21.30;65.20
23713;DHT22;12035;49.978;8.298;2023-05-07T22:15:57;21.20;65.20
23713;DHT22;12035;49.978;8.298;2023-05-07T22:20:53;21.20;65.80
23713;DHT22;12035;49.978;8.298;2023-05-07T22:25:50;21.30;65.60
23713;DHT22;12035;49.978;8.298;2023-05-07T22:30:48;21.30;65.70
23713;DHT22;12035;49.978;8.298;2023-05-07T22:35:47;21.30;65.80
23713;DHT22;12035;49.978;8.298;2023-05-07T22:40:43;21.30;66.00
23713;DHT22;12035;49.978;8.298;2023-05-07T22:45:40;21.30;66.00
23713;DHT22;12035;49.978;8.298;2023-05-07T22:50:37;21.30;66.20
23713;DHT22;12035;49.978;8.298;2023-05-07T22:55:36;21.30;66.30
23713;DHT22;12035;49.978;8.298;2023-05-07T23:00:33;21.30;66.60
23713;DHT22;12035;49.978;8.298;2023-05-07T23:05:30;21.20;66.60
23713;DHT22;12035;49.978;8.298;2023-05-07T23:10:28;21.10;66.70
23713;DHT22;12035;49.978;8.298;2023-05-07T23:15:27;21.10;67.10
23713;DHT22;12035;49.978;8.298;2023-05-07T23:20:24;21.10;67.40
23713;DHT22;12035;49.978;8.298;2023-05-07T23:25:21;21.00;67.40
23713;DHT22;12035;49.978;8.298;2023-05-07T23:30:18;21.00;67.60
23713;DHT22;12035;49.978;8.298;2023-05-07T23:35:17;21.00;67.70
23713;DHT22;12035;49.978;8.298;2023-05-07T23:40:16;21.00;68.10
23713;DHT22;12035;49.978;8.298;2023-05-07T23:45:13;21.00;68.20
23713;DHT22;12035;49.978;8.298;2023-05-07T23:50:10;21.10;68.10
23713;DHT22;12035;49.978;8.298;2023-05-07T23:55:09;21.10;68.20
